createdAt,value
2018-01-15T00:00:17.883Z,8.15
2018-01-15T00:02:46.393Z,8.15
2018-01-15T00:05:14.030Z,8.68
2018-01-15T00:07:42.300Z,9.23
2018-01-15T00:10:09.900Z,7.97
2018-01-15T00:12:38.096Z,7.95
2018-01-15T00:15:05.816Z,9.32
2018-01-15T00:17:33.688Z,9.35
2018-01-15T00:20:01.457Z,8.75
2018-01-15T00:22:33.943Z,8.43
2018-01-15T00:25:01.566Z,7.68
2018-01-15T00:27:29.135Z,7.18
2018-01-15T00:29:56.815Z,7.80
2018-01-15T00:32:24.526Z,9.70
2018-01-15T00:34:52.288Z,9.45
2018-01-15T00:37:20.081Z,9.63
2018-01-15T00:39:47.814Z,9.15
2018-01-15T00:42:15.493Z,9.95
2018-01-15T00:44:43.298Z,8.82
2018-01-15T00:47:11.368Z,8.63
2018-01-15T00:49:39.414Z,10.57
2018-01-15T00:52:07.246Z,11.07
2018-01-15T00:54:35.303Z,10.70
2018-01-15T00:57:04.051Z,10.55
2018-01-15T00:59:32.259Z,10.50
2018-01-15T01:02:00.392Z,11.50
2018-01-15T01:04:28.248Z,8.63
2018-01-15T01:06:57.681Z,9.65
2018-01-15T01:09:25.598Z,9.15
2018-01-15T01:11:53.215Z,12.13
2018-01-15T01:14:20.843Z,11.25
2018-01-15T01:16:48.556Z,9.15
2018-01-15T01:19:16.136Z,11.05
2018-01-15T01:21:44.695Z,11.02
2018-01-15T01:24:12.658Z,9.25
2018-01-15T01:26:40.213Z,11.40
2018-01-15T01:29:07.827Z,11.18
2018-01-15T01:31:35.502Z,11.18
2018-01-15T01:34:03.097Z,10.77
2018-01-15T01:36:33.599Z,10.57
2018-01-15T01:39:04.456Z,11.82
2018-01-15T01:41:35.717Z,11.85
2018-01-15T01:44:11.379Z,11.32
2018-01-15T01:46:39.456Z,11.98
2018-01-15T01:49:10.007Z,9.65
2018-01-15T01:51:40.035Z,12.23
2018-01-15T01:54:07.769Z,10.43
2018-01-15T01:56:35.434Z,8.52
2018-01-15T01:59:03.233Z,11.25
2018-01-15T02:01:30.947Z,11.10
2018-01-15T02:03:58.543Z,10.38
2018-01-15T02:06:26.222Z,10.20
2018-01-15T02:08:53.951Z,11.32
2018-01-15T02:11:21.697Z,10.23
2018-01-15T02:13:49.388Z,11.02
2018-01-15T02:16:17.173Z,11.35
2018-01-15T02:18:44.809Z,12.15
2018-01-15T02:21:12.478Z,12.07
2018-01-15T02:23:40.164Z,11.82
2018-01-15T02:26:07.975Z,12.80
2018-01-15T02:28:35.652Z,10.38
2018-01-15T02:31:03.366Z,10.65
2018-01-15T02:33:30.964Z,10.80
2018-01-15T02:35:58.767Z,10.60
2018-01-15T02:38:26.467Z,11.82
2018-01-15T02:40:55.032Z,11.70
2018-01-15T02:43:22.592Z,11.80
2018-01-15T02:45:50.570Z,10.85
2018-01-15T02:48:18.117Z,11.90
2018-01-15T02:50:45.986Z,11.23
2018-01-15T02:53:13.657Z,12.20
2018-01-15T02:55:41.276Z,11.70
2018-01-15T02:58:09.057Z,10.93
2018-01-15T03:00:36.760Z,12.52
2018-01-15T03:03:04.316Z,10.82
2018-01-15T03:05:32.627Z,9.27
2018-01-15T03:08:00.312Z,12.93
2018-01-15T03:10:27.854Z,13.40
2018-01-15T03:12:55.397Z,11.15
2018-01-15T03:15:23.457Z,10.15
2018-01-15T03:17:51.058Z,12.50
2018-01-15T03:20:18.607Z,10.43
2018-01-15T03:22:46.757Z,9.02
2018-01-15T03:25:14.321Z,11.93
2018-01-15T03:27:42.113Z,9.57
2018-01-15T03:30:09.855Z,12.10
2018-01-15T03:32:37.443Z,8.90
2018-01-15T03:35:05.007Z,12.90
2018-01-15T03:37:32.649Z,9.52
2018-01-15T03:40:00.251Z,10.98
2018-01-15T03:42:28.405Z,12.15
2018-01-15T03:44:56.081Z,12.88
2018-01-15T03:47:23.963Z,11.50
2018-01-15T03:49:51.601Z,10.00
2018-01-15T03:52:19.293Z,11.52
2018-01-15T03:54:46.896Z,13.70
2018-01-15T03:57:14.728Z,12.60
2018-01-15T03:59:42.402Z,12.10
2018-01-15T04:02:10.105Z,12.32
2018-01-15T04:04:37.629Z,13.20
2018-01-15T04:07:05.200Z,9.30
2018-01-15T04:09:33.771Z,8.82
2018-01-15T04:12:01.456Z,9.82
2018-01-15T04:14:29.279Z,12.32
2018-01-15T04:16:56.956Z,11.35
2018-01-15T04:19:24.510Z,10.93
2018-01-15T04:21:52.411Z,9.73
2018-01-15T04:24:20.077Z,11.30
2018-01-15T04:26:47.662Z,9.05
2018-01-15T04:29:15.224Z,9.93
2018-01-15T04:31:43.017Z,9.35
2018-01-15T04:34:10.620Z,11.65
2018-01-15T04:36:38.396Z,9.35
2018-01-15T04:39:06.093Z,11.57
2018-01-15T04:41:33.693Z,8.60
2018-01-15T04:44:01.311Z,8.95
2018-01-15T04:46:28.985Z,10.52
2018-01-15T04:48:57.061Z,11.43
2018-01-15T04:51:24.591Z,11.73
2018-01-15T04:53:52.272Z,9.95
2018-01-15T04:56:19.837Z,11.25
2018-01-15T04:58:47.391Z,12.05
2018-01-15T05:01:15.148Z,11.40
2018-01-15T05:03:42.951Z,10.98
2018-01-15T05:06:10.612Z,12.37
2018-01-15T05:08:38.298Z,10.77
2018-01-15T05:11:06.071Z,10.20
2018-01-15T05:13:33.853Z,12.43
2018-01-15T05:16:01.584Z,10.73
2018-01-15T05:18:29.645Z,8.27
2018-01-15T05:20:57.492Z,12.48
2018-01-15T05:23:25.512Z,9.88
2018-01-15T05:25:54.196Z,11.80
2018-01-15T05:28:22.114Z,9.32
2018-01-15T05:30:49.864Z,11.05
2018-01-15T05:33:17.443Z,9.10
2018-01-15T05:35:45.007Z,10.25
2018-01-15T05:38:13.129Z,10.40
2018-01-15T05:40:40.693Z,10.70
2018-01-15T05:43:09.142Z,10.57
2018-01-15T05:45:37.458Z,10.85
2018-01-15T05:48:05.234Z,10.40
2018-01-15T05:50:32.865Z,11.88
2018-01-15T05:53:01.450Z,9.63
2018-01-15T05:55:29.050Z,9.52
2018-01-15T05:57:57.504Z,11.60
2018-01-15T06:00:25.209Z,12.75
2018-01-15T06:02:54.500Z,10.57
2018-01-15T06:05:22.607Z,10.82
2018-01-15T06:07:50.595Z,10.50
2018-01-15T06:10:18.259Z,10.70
2018-01-15T06:12:46.174Z,11.88
2018-01-15T06:15:13.880Z,10.00
2018-01-15T06:17:42.378Z,11.63
2018-01-15T06:20:09.959Z,10.48
2018-01-15T06:22:37.703Z,10.13
2018-01-15T06:25:05.786Z,11.10
2018-01-15T06:27:33.342Z,9.50
2018-01-15T06:30:01.062Z,10.40
2018-01-15T06:32:28.802Z,12.50
2018-01-15T06:34:56.425Z,12.00
2018-01-15T06:37:24.128Z,10.15
2018-01-15T06:39:51.828Z,12.55
2018-01-15T06:42:19.364Z,12.02
2018-01-15T06:44:47.165Z,11.85
2018-01-15T06:47:14.822Z,9.23
2018-01-15T06:49:42.831Z,9.60
2018-01-15T06:52:10.395Z,11.32
2018-01-15T06:54:38.064Z,13.00
2018-01-15T06:57:05.646Z,12.48
2018-01-15T06:59:33.244Z,11.68
2018-01-15T07:02:00.913Z,15.60
2018-01-15T07:04:28.537Z,11.88
2018-01-15T07:06:56.138Z,13.32
2018-01-15T07:09:23.810Z,12.13
2018-01-15T07:11:51.342Z,10.52
2018-01-15T07:14:18.921Z,12.63
2018-01-15T07:16:46.594Z,13.48
2018-01-15T07:19:14.199Z,10.05
2018-01-15T07:21:42.523Z,13.15
2018-01-15T07:24:10.234Z,12.23
2018-01-15T07:26:37.836Z,13.95
2018-01-15T07:29:05.597Z,13.27
2018-01-15T07:31:33.335Z,12.40
2018-01-15T07:34:00.939Z,15.10
2018-01-15T07:36:41.222Z,13.27
2018-01-15T07:39:11.681Z,16.42
2018-01-15T07:41:39.565Z,14.85
2018-01-15T07:44:10.899Z,13.02
2018-01-15T07:46:38.453Z,14.70
2018-01-15T07:49:06.130Z,13.43
2018-01-15T07:51:33.840Z,14.77
2018-01-15T07:54:01.439Z,13.00
2018-01-15T07:56:29.114Z,15.00
2018-01-15T07:58:56.732Z,13.30
2018-01-15T08:01:24.856Z,11.12
2018-01-15T08:03:53.061Z,12.70
2018-01-15T08:06:20.859Z,11.45
2018-01-15T08:08:49.941Z,10.40
2018-01-15T08:11:17.543Z,11.52
2018-01-15T08:13:45.280Z,11.40
2018-01-15T08:16:12.982Z,11.23
2018-01-15T08:18:40.590Z,9.52
2018-01-15T08:21:08.292Z,12.00
2018-01-15T08:23:35.983Z,10.63
2018-01-15T08:26:03.823Z,11.98
2018-01-15T08:28:31.904Z,11.05
2018-01-15T08:31:00.931Z,10.80
2018-01-15T08:33:28.593Z,10.45
2018-01-15T08:35:56.605Z,12.35
2018-01-15T08:38:24.345Z,10.82
2018-01-15T08:40:52.177Z,11.63
2018-01-15T08:43:19.782Z,12.43
2018-01-15T08:45:47.501Z,12.50
2018-01-15T08:48:15.214Z,11.27
2018-01-15T08:50:42.861Z,12.15
2018-01-15T08:53:11.104Z,12.63
2018-01-15T08:55:39.533Z,11.35
2018-01-15T08:58:07.324Z,13.55
2018-01-15T09:00:35.951Z,13.35
2018-01-15T09:03:04.414Z,12.15
2018-01-15T09:05:33.065Z,12.88
2018-01-15T09:08:00.776Z,13.10
2018-01-15T09:10:28.383Z,12.10
2018-01-15T09:12:55.992Z,12.40
2018-01-15T09:15:24.137Z,12.40
2018-01-15T09:17:51.744Z,13.98
2018-01-15T09:20:19.485Z,11.45
2018-01-15T09:22:47.196Z,13.77
2018-01-15T09:25:14.760Z,14.10
2018-01-15T09:27:42.309Z,13.40
2018-01-15T09:30:15.132Z,11.02
2018-01-15T09:32:43.214Z,12.77
2018-01-15T09:35:13.507Z,11.75
2018-01-15T09:37:44.707Z,12.15
2018-01-15T09:40:13.672Z,11.88
2018-01-15T09:46:13.119Z,10.00
2018-01-15T09:48:41.672Z,9.38
2018-01-15T09:51:11.805Z,12.18
2018-01-15T09:53:40.400Z,11.82
2018-01-15T09:56:14.611Z,12.57
2018-01-15T09:58:42.892Z,13.23
2018-01-15T10:01:11.929Z,10.52
2018-01-15T10:03:41.846Z,13.10
2018-01-15T10:06:13.729Z,10.60
2018-01-15T10:08:43.839Z,14.45
2018-01-15T10:11:15.473Z,13.50
2018-01-15T10:13:46.463Z,13.35
2018-01-15T10:16:16.895Z,12.50
2018-01-15T10:18:45.076Z,13.20
2018-01-15T10:21:14.190Z,10.02
2018-01-15T10:23:42.881Z,9.57
2018-01-15T10:26:10.852Z,12.25
2018-01-15T10:28:38.464Z,11.70
2018-01-15T10:31:06.171Z,11.18
2018-01-15T10:33:33.817Z,10.73
2018-01-15T10:36:01.414Z,8.68
2018-01-15T10:38:29.344Z,9.60
2018-01-15T10:40:56.914Z,10.40
2018-01-15T10:43:24.754Z,9.82
2018-01-15T10:45:52.583Z,8.07
2018-01-15T10:48:20.782Z,9.32
2018-01-15T10:50:48.439Z,10.38
2018-01-15T10:53:16.156Z,9.88
2018-01-15T10:55:44.111Z,10.38
2018-01-15T10:58:11.720Z,9.32
2018-01-15T11:00:45.186Z,11.35
2018-01-15T11:03:12.816Z,10.15
2018-01-15T11:05:40.772Z,11.23
2018-01-15T11:08:08.998Z,8.10
2018-01-15T11:10:37.432Z,10.43
2018-01-15T11:13:05.090Z,10.02
2018-01-15T11:15:33.035Z,11.15
2018-01-15T11:18:00.680Z,10.77
2018-01-15T11:20:28.584Z,10.10
2018-01-15T11:22:57.214Z,10.98
2018-01-15T11:25:25.270Z,10.55
2018-01-15T11:27:53.892Z,10.23
2018-01-15T11:30:21.666Z,10.18
2018-01-15T11:32:50.672Z,9.80
2018-01-15T11:35:18.432Z,9.73
2018-01-15T11:37:46.435Z,9.73
2018-01-15T11:40:14.106Z,11.75
2018-01-15T11:42:41.786Z,11.30
2018-01-15T11:45:10.025Z,10.40
2018-01-15T11:47:37.837Z,10.18
2018-01-15T11:50:05.693Z,10.60
2018-01-15T11:52:34.257Z,10.07
2018-01-15T11:55:01.961Z,8.23
2018-01-15T11:57:29.645Z,8.93
2018-01-15T11:59:58.058Z,10.43
2018-01-15T12:02:25.773Z,9.57
2018-01-15T12:04:53.435Z,11.82
2018-01-15T12:07:21.278Z,10.85
2018-01-15T12:09:49.172Z,8.30
2018-01-15T12:12:16.814Z,8.27
2018-01-15T12:14:44.510Z,10.50
2018-01-15T12:17:12.253Z,10.02
2018-01-15T12:19:39.906Z,11.10
2018-01-15T12:22:08.172Z,11.00
2018-01-15T12:24:35.927Z,11.63
2018-01-15T12:27:03.585Z,11.15
2018-01-15T12:29:31.895Z,12.25
2018-01-15T12:31:59.624Z,9.45
2018-01-15T12:34:27.951Z,9.13
2018-01-15T12:36:55.866Z,10.38
2018-01-15T12:39:23.601Z,8.68
2018-01-15T12:41:51.814Z,9.65
2018-01-15T12:47:15.451Z,11.52
2018-01-15T12:49:43.275Z,10.20
2018-01-15T12:52:10.964Z,10.60
2018-01-15T12:54:38.642Z,11.45
2018-01-15T12:57:06.503Z,13.07
2018-01-15T12:59:34.149Z,10.82
2018-01-15T13:02:02.057Z,11.30
2018-01-15T13:04:40.031Z,11.25
2018-01-15T13:07:19.556Z,9.73
2018-01-15T13:09:47.233Z,11.55
2018-01-15T13:12:14.917Z,11.90
2018-01-15T13:14:42.650Z,11.35
2018-01-15T13:17:11.237Z,9.40
2018-01-15T13:19:39.165Z,10.77
2018-01-15T13:22:06.902Z,9.02
2018-01-15T13:24:34.674Z,10.52
2018-01-15T13:27:02.908Z,10.25
2018-01-15T13:29:30.684Z,10.82
2018-01-15T13:31:58.405Z,8.98
2018-01-15T13:34:26.117Z,10.07
2018-01-15T13:36:53.902Z,9.35
2018-01-15T13:39:21.712Z,10.05
2018-01-15T13:41:50.627Z,9.93
2018-01-15T13:44:19.489Z,9.02
2018-01-15T13:46:47.265Z,8.75
2018-01-15T13:49:15.488Z,8.75
2018-01-15T13:51:43.152Z,10.68
2018-01-15T13:56:49.426Z,9.63
2018-01-15T13:59:17.180Z,11.80
2018-01-15T14:01:44.888Z,9.57
2018-01-15T14:04:13.701Z,10.10
2018-01-15T14:06:41.400Z,8.77
2018-01-15T14:09:09.227Z,10.05
2018-01-15T14:11:36.992Z,10.00
2018-01-15T14:14:04.858Z,9.15
2018-01-15T14:16:33.953Z,10.13
2018-01-15T14:19:02.996Z,9.38
2018-01-15T14:21:37.955Z,11.18
2018-01-15T14:24:07.247Z,10.07
2018-01-15T14:26:35.664Z,8.82
2018-01-15T14:29:03.851Z,11.90
2018-01-15T14:31:32.635Z,11.10
2018-01-15T14:34:00.371Z,11.68
2018-01-15T14:36:28.143Z,11.63
2018-01-15T14:38:56.414Z,9.77
2018-01-15T14:41:25.738Z,13.43
2018-01-15T14:43:53.371Z,11.82
2018-01-15T14:46:21.178Z,11.63
2018-01-15T14:48:48.814Z,12.75
2018-01-15T14:51:16.487Z,11.45
2018-01-15T14:53:48.591Z,12.25
2018-01-15T14:56:16.365Z,12.88
2018-01-15T14:59:02.772Z,10.60
2018-01-15T15:01:33.494Z,10.80
2018-01-15T15:04:02.630Z,10.40
2018-01-15T15:06:36.098Z,13.20
2018-01-15T15:09:04.998Z,12.82
2018-01-15T15:11:33.106Z,14.10
2018-01-15T15:14:03.641Z,12.48
2018-01-15T15:16:32.975Z,12.85
2018-01-15T15:19:00.982Z,12.48
2018-01-15T15:21:29.574Z,9.45
2018-01-15T15:23:57.244Z,11.90
2018-01-15T15:26:25.021Z,13.10
2018-01-15T15:28:53.205Z,14.25
2018-01-15T15:31:21.013Z,13.38
2018-01-15T15:33:49.469Z,11.90
2018-01-15T15:36:17.227Z,11.43
2018-01-15T15:38:44.930Z,14.27
2018-01-15T15:42:03.306Z,14.60
2018-01-15T15:45:01.428Z,14.18
2018-01-15T15:47:29.003Z,12.35
2018-01-15T15:49:56.819Z,14.25
2018-01-15T15:52:24.562Z,14.23
2018-01-15T15:54:52.340Z,13.90
2018-01-15T15:57:22.019Z,13.00
2018-01-15T15:59:50.685Z,15.38
2018-01-15T16:02:18.486Z,15.65
2018-01-15T16:04:46.095Z,17.15
2018-01-15T16:07:13.742Z,14.05
2018-01-15T16:09:42.337Z,15.30
2018-01-15T16:12:09.948Z,14.75
2018-01-15T16:14:38.317Z,15.27
2018-01-15T16:17:06.028Z,12.77
2018-01-15T16:19:33.959Z,15.23
2018-01-15T16:22:13.470Z,12.63
2018-01-15T16:24:41.531Z,14.52
2018-01-15T16:27:09.343Z,14.52
2018-01-15T16:29:37.142Z,16.27
2018-01-15T16:32:04.853Z,13.40
2018-01-15T16:34:32.553Z,14.65
2018-01-15T16:37:00.593Z,12.60
2018-01-15T16:39:28.298Z,14.85
2018-01-15T16:41:55.971Z,13.43
2018-01-15T16:44:23.582Z,16.27
2018-01-15T16:46:51.320Z,14.75
2018-01-15T16:49:18.984Z,15.20
2018-01-15T16:51:46.574Z,14.73
2018-01-15T16:54:14.256Z,13.65
2018-01-15T16:56:42.303Z,13.73
2018-01-15T17:01:37.868Z,12.80
2018-01-15T17:04:05.608Z,13.40
2018-01-15T17:06:33.396Z,12.10
2018-01-15T17:09:01.168Z,12.05
2018-01-15T17:11:28.730Z,16.48
2018-01-15T17:13:56.556Z,11.80
2018-01-15T17:16:24.293Z,11.73
2018-01-15T17:18:52.292Z,11.50
2018-01-15T17:21:21.016Z,15.75
2018-01-15T17:23:48.705Z,13.90
2018-01-15T17:26:16.495Z,13.62
2018-01-15T17:28:44.187Z,10.77
2018-01-15T17:31:12.682Z,12.37
2018-01-15T17:33:40.322Z,13.60
2018-01-15T17:36:08.047Z,13.82
2018-01-15T17:38:36.345Z,11.18
2018-01-15T17:41:04.184Z,13.70
2018-01-15T17:43:32.494Z,14.20
2018-01-15T17:46:00.218Z,14.20
2018-01-15T17:48:27.860Z,10.38
2018-01-15T17:50:55.410Z,14.07
2018-01-15T17:53:23.134Z,13.80
2018-01-15T17:55:51.467Z,11.82
2018-01-15T17:58:19.119Z,11.32
2018-01-15T18:00:47.128Z,11.93
2018-01-15T18:03:15.272Z,11.98
2018-01-15T18:05:42.924Z,12.50
2018-01-15T18:08:10.717Z,12.70
2018-01-15T18:10:38.985Z,10.23
2018-01-15T18:13:06.570Z,12.30
2018-01-15T18:15:34.324Z,9.60
2018-01-15T18:18:02.717Z,10.82
2018-01-15T18:20:31.252Z,12.95
2018-01-15T18:22:58.986Z,11.40
2018-01-15T18:25:26.701Z,10.70
2018-01-15T18:27:55.275Z,10.70
2018-01-15T18:30:23.398Z,14.00
2018-01-15T18:32:51.142Z,11.43
2018-01-15T18:35:24.010Z,10.45
2018-01-15T18:37:55.428Z,12.15
2018-01-15T18:40:32.836Z,11.18
2018-01-15T18:43:06.569Z,12.18
2018-01-15T18:45:34.241Z,13.23
2018-01-15T18:48:03.186Z,11.05
2018-01-15T18:50:31.025Z,13.13
2018-01-15T18:53:02.637Z,12.20
2018-01-15T18:55:30.362Z,10.55
2018-01-15T18:58:16.295Z,12.93
2018-01-15T19:00:44.073Z,10.88
2018-01-15T19:03:11.657Z,12.05
2018-01-15T19:05:39.517Z,13.43
2018-01-15T19:08:07.317Z,13.20
2018-01-15T19:10:34.916Z,13.35
2018-01-15T19:13:02.496Z,11.95
2018-01-15T19:15:30.221Z,12.52
2018-01-15T19:17:58.142Z,12.05
2018-01-15T19:20:26.237Z,13.32
2018-01-15T19:22:53.972Z,9.57
2018-01-15T19:25:21.659Z,11.38
2018-01-15T19:27:49.408Z,12.32
2018-01-15T19:30:17.381Z,13.57
2018-01-15T19:32:45.465Z,13.35
2018-01-15T19:35:16.035Z,12.55
2018-01-15T19:37:47.857Z,13.32
2018-01-15T19:40:15.457Z,12.70
2018-01-15T19:42:43.971Z,16.33
2018-01-15T19:45:17.138Z,12.50
2018-01-15T19:47:51.454Z,14.63
2018-01-15T19:50:28.822Z,14.80
2018-01-15T19:53:02.033Z,14.70
2018-01-15T19:55:35.543Z,15.23
2018-01-15T19:58:09.522Z,12.90
2018-01-15T20:00:42.846Z,14.57
2018-01-15T20:03:16.088Z,13.02
2018-01-15T20:05:49.463Z,14.27
2018-01-15T20:08:22.483Z,11.90
2018-01-15T20:10:52.635Z,13.35
2018-01-15T20:13:20.262Z,13.77
2018-01-15T20:15:48.710Z,11.20
2018-01-15T20:18:17.337Z,14.60
2018-01-15T20:20:44.936Z,17.25
2018-01-15T20:23:12.521Z,15.35
2018-01-15T20:25:40.337Z,15.60
2018-01-15T20:28:08.680Z,16.92
2018-01-15T20:30:36.403Z,11.18
2018-01-15T20:33:03.942Z,12.57
2018-01-15T20:35:31.511Z,12.15
2018-01-15T20:37:59.205Z,14.85
2018-01-15T20:40:27.085Z,11.60
2018-01-15T20:42:54.905Z,16.83
2018-01-15T20:45:22.599Z,18.20
2018-01-15T20:47:50.169Z,14.87
2018-01-15T20:50:17.775Z,14.82
2018-01-15T20:52:45.461Z,14.85
2018-01-15T20:55:13.249Z,12.20
2018-01-15T20:57:40.805Z,14.20
2018-01-15T21:00:11.058Z,13.90
2018-01-15T21:02:39.595Z,14.05
2018-01-15T21:05:07.175Z,12.30
2018-01-15T21:07:35.216Z,12.55
2018-01-15T21:10:03.688Z,16.00
2018-01-15T21:12:31.282Z,15.63
2018-01-15T21:14:58.956Z,14.55
2018-01-15T21:17:26.542Z,16.42
2018-01-15T21:19:54.103Z,10.82
2018-01-15T21:22:21.779Z,14.48
2018-01-15T21:24:49.405Z,13.38
2018-01-15T21:27:17.001Z,14.25
2018-01-15T21:29:44.709Z,14.00
2018-01-15T21:32:13.238Z,17.40
2018-01-15T21:34:41.671Z,14.95
2018-01-15T21:37:09.494Z,16.23
2018-01-15T21:39:37.204Z,15.90
2018-01-15T21:42:04.811Z,16.70
2018-01-15T21:44:32.357Z,13.75
2018-01-15T21:47:00.042Z,14.68
2018-01-15T21:49:27.843Z,11.88
2018-01-15T21:51:55.435Z,13.60
2018-01-15T21:54:23.158Z,12.52
2018-01-15T21:56:50.805Z,11.73
2018-01-15T21:59:18.382Z,14.95
2018-01-15T22:01:46.115Z,12.85
2018-01-15T22:04:13.671Z,13.80
2018-01-15T22:06:41.503Z,13.82
2018-01-15T22:09:09.210Z,16.55
2018-01-15T22:11:36.779Z,17.05
2018-01-15T22:14:04.726Z,17.10
2018-01-15T22:16:32.406Z,17.70
2018-01-15T22:19:00.007Z,15.98
2018-01-15T22:21:27.853Z,13.70
2018-01-15T22:23:55.787Z,15.18
2018-01-15T22:26:23.567Z,15.35
2018-01-15T22:28:51.178Z,20.55
2018-01-15T22:31:18.910Z,16.37
2018-01-15T22:33:47.662Z,16.42
2018-01-15T22:36:17.250Z,15.68
2018-01-15T22:38:50.066Z,14.35
2018-01-15T22:41:17.680Z,14.00
2018-01-15T22:43:45.833Z,14.18
2018-01-15T22:46:14.006Z,14.82
2018-01-15T22:48:42.477Z,12.77
2018-01-15T22:58:50.943Z,14.43
2018-01-15T23:01:20.616Z,15.27
2018-01-15T23:03:48.211Z,15.50
2018-01-15T23:06:15.787Z,14.48
2018-01-15T23:08:43.465Z,13.48
2018-01-15T23:11:11.057Z,13.77
2018-01-15T23:13:38.607Z,13.98
2018-01-15T23:16:06.305Z,12.68
2018-01-15T23:18:33.901Z,13.23
2018-01-15T23:21:01.985Z,12.32
2018-01-15T23:23:29.662Z,12.68
2018-01-15T23:25:57.201Z,14.90
2018-01-15T23:28:25.429Z,13.82
2018-01-15T23:30:53.133Z,14.90
2018-01-15T23:33:20.707Z,13.10
2018-01-15T23:35:48.360Z,12.70
2018-01-15T23:38:16.057Z,10.90
2018-01-15T23:40:43.640Z,13.40
2018-01-15T23:43:11.275Z,13.18
2018-01-15T23:45:38.984Z,13.18
2018-01-15T23:48:06.867Z,13.18
2018-01-15T23:50:35.213Z,9.55
2018-01-15T23:53:02.875Z,11.02
2018-01-15T23:55:30.492Z,13.62
2018-01-15T23:57:58.288Z,10.93
